sensor_id;sensor_type;location;lat;lon;timestamp;pressure;altitude;pressure_sealevel;temperature;humidity
13478;BME280;12598;62.382;17.344;2022-07-23T00:00:04;101242.84;;;27.25;31.48
13478;BME280;12598;62.382;17.344;2022-07-23T00:01:06;101235.28;;;27.21;31.45
13478;BME280;12598;62.382;17.344;2022-07-23T00:02:08;101231.91;;;27.19;31.52
13478;BME280;12598;62.382;17.344;2022-07-23T00:03:10;101234.91;;;27.24;31.72
13478;BME280;12598;62.382;17.344;2022-07-23T00:04:12;101235.09;;;27.23;31.63
13478;BME280;12598;62.382;17.344;2022-07-23T00:05:14;101229.41;;;27.18;31.77
13478;BME280;12598;62.382;17.344;2022-07-23T00:06:16;101225.41;;;27.14;31.57
13478;BME280;12598;62.382;17.344;2022-07-23T00:07:18;101215.59;;;27.13;31.63
13478;BME280;12598;62.382;17.344;2022-07-23T00:08:20;101225.19;;;27.15;31.54
13478;BME280;12598;62.382;17.344;2022-07-23T00:09:22;101218.47;;;27.11;31.61
13478;BME280;12598;62.382;17.344;2022-07-23T00:10:24;101218.19;;;27.06;31.63
13478;BME280;12598;62.382;17.344;2022-07-23T00:11:26;101227.88;;;27.09;31.63
13478;BME280;12598;62.382;17.344;2022-07-23T00:12:28;101234.59;;;27.13;31.60
13478;BME280;12598;62.382;17.344;2022-07-23T00:13:30;101238.59;;;27.17;31.51
13478;BME280;12598;62.382;17.344;2022-07-23T00:14:32;101240.44;;;27.16;31.83
13478;BME280;12598;62.382;17.344;2022-07-23T00:15:34;101229.28;;;27.05;31.54
13478;BME280;12598;62.382;17.344;2022-07-23T00:16:35;101238.97;;;27.14;31.57
13478;BME280;12598;62.382;17.344;2022-07-23T00:17:37;101249.84;;;27.14;31.70
13478;BME280;12598;62.382;17.344;2022-07-23T00:18:39;101235.53;;;27.05;31.89
13478;BME280;12598;62.382;17.344;2022-07-23T00:19:41;101232.16;;;27.03;31.76
13478;BME280;12598;62.382;17.344;2022-07-23T00:20:43;101230.94;;;27.06;31.79
13478;BME280;12598;62.382;17.344;2022-07-23T00:21:45;101252.75;;;27.12;31.67
13478;BME280;12598;62.382;17.344;2022-07-23T00:22:48;101232.16;;;27.03;31.95
13478;BME280;12598;62.382;17.344;2022-07-23T00:23:50;101249.38;;;27.10;31.70
13478;BME280;12598;62.382;17.344;2022-07-23T00:24:52;101242.28;;;27.09;31.56
13478;BME280;12598;62.382;17.344;2022-07-23T00:26:14;101253.22;;;27.16;31.63
13478;BME280;12598;62.382;17.344;2022-07-23T00:27:15;101249.38;;;27.10;32.22
13478;BME280;12598;62.382;17.344;2022-07-23T00:28:18;101252.09;;;27.10;31.87
13478;BME280;12598;62.382;17.344;2022-07-23T00:29:20;101234.81;;;26.97;31.93
13478;BME280;12598;62.382;17.344;2022-07-23T00:30:22;101251.81;;;27.05;32.09
13478;BME280;12598;62.382;17.344;2022-07-23T00:31:24;101261.47;;;27.08;31.83
13478;BME280;12598;62.382;17.344;2022-07-23T00:32:26;101261.63;;;27.06;31.76
13478;BME280;12598;62.382;17.344;2022-07-23T00:33:48;101246.78;;;27.02;31.79
13478;BME280;12598;62.382;17.344;2022-07-23T00:34:50;101256.88;;;27.08;31.77
13478;BME280;12598;62.382;17.344;2022-07-23T00:35:52;101239.41;;;26.96;31.95
13478;BME280;12598;62.382;17.344;2022-07-23T00:36:54;101249.69;;;27.01;32.11
13478;BME280;12598;62.382;17.344;2022-07-23T00:37:57;101253.88;;;27.03;32.03
13478;BME280;12598;62.382;17.344;2022-07-23T00:38:59;101257.63;;;27.02;31.87
13478;BME280;12598;62.382;17.344;2022-07-23T00:40:02;101245.22;;;26.93;31.61
13478;BME280;12598;62.382;17.344;2022-07-23T00:41:04;101253.22;;;27.01;32.00
13478;BME280;12598;62.382;17.344;2022-07-23T00:42:06;101258.03;;;26.99;31.79
13478;BME280;12598;62.382;17.344;2022-07-23T00:43:08;101250.69;;;27.00;31.87
13478;BME280;12598;62.382;17.344;2022-07-23T00:45:21;101256.81;;;27.02;31.80
13478;BME280;12598;62.382;17.344;2022-07-23T00:46:23;101258.03;;;26.99;31.45
13478;BME280;12598;62.382;17.344;2022-07-23T00:47:26;101251.72;;;26.99;31.93
13478;BME280;12598;62.382;17.344;2022-07-23T00:48:28;101262.59;;;26.99;31.84
13478;BME280;12598;62.382;17.344;2022-07-23T00:49:31;101251.31;;;26.95;32.18
13478;BME280;12598;62.382;17.344;2022-07-23T00:50:33;101239.53;;;26.88;32.01
13478;BME280;12598;62.382;17.344;2022-07-23T00:51:35;101254.00;;;26.95;32.22
13478;BME280;12598;62.382;17.344;2022-07-23T00:52:38;101256.72;;;26.95;31.90
13478;BME280;12598;62.382;17.344;2022-07-23T00:53:41;101246.66;;;26.89;31.94
13478;BME280;12598;62.382;17.344;2022-07-23T00:54:43;101244.13;;;26.88;31.97
13478;BME280;12598;62.382;17.344;2022-07-23T00:55:44;101252.34;;;26.94;32.03
13478;BME280;12598;62.382;17.344;2022-07-23T00:56:46;101242.00;;;26.83;31.93
13478;BME280;12598;62.382;17.344;2022-07-23T00:57:50;101260.88;;;26.91;32.42
13478;BME280;12598;62.382;17.344;2022-07-23T00:58:52;101262.53;;;26.92;32.09
13478;BME280;12598;62.382;17.344;2022-07-23T00:59:54;101255.19;;;26.86;31.97
13478;BME280;12598;62.382;17.344;2022-07-23T01:00:56;101242.38;;;26.80;31.78
13478;BME280;12598;62.382;17.344;2022-07-23T01:01:58;101254.31;;;26.86;32.28
13478;BME280;12598;62.382;17.344;2022-07-23T01:03:00;101264.63;;;26.90;32.22
13478;BME280;12598;62.382;17.344;2022-07-23T01:04:02;101249.50;;;26.81;32.00
13478;BME280;12598;62.382;17.344;2022-07-23T01:05:05;101243.41;;;26.79;31.98
13478;BME280;12598;62.382;17.344;2022-07-23T01:06:07;101246.56;;;26.83;32.11
13478;BME280;12598;62.382;17.344;2022-07-23T01:07:09;101251.59;;;26.86;32.32
13478;BME280;12598;62.382;17.344;2022-07-23T01:08:12;101253.88;;;26.82;32.32
13478;BME280;12598;62.382;17.344;2022-07-23T01:09:14;101259.09;;;26.84;32.20
13478;BME280;12598;62.382;17.344;2022-07-23T01:10:17;101256.84;;;26.87;32.29
13478;BME280;12598;62.382;17.344;2022-07-23T01:11:36;101251.59;;;26.86;31.98
13478;BME280;12598;62.382;17.344;2022-07-23T01:12:41;101261.91;;;26.90;32.17
13478;BME280;12598;62.382;17.344;2022-07-23T01:13:43;101260.22;;;26.89;32.44
13478;BME280;12598;62.382;17.344;2022-07-23T01:14:45;101266.69;;;26.88;32.27
13478;BME280;12598;62.382;17.344;2022-07-23T01:15:54;101255.81;;;26.88;32.28
13478;BME280;12598;62.382;17.344;2022-07-23T01:16:56;101227.25;;;26.71;32.13
13478;BME280;12598;62.382;17.344;2022-07-23T01:17:59;101251.59;;;26.86;32.17
13478;BME280;12598;62.382;17.344;2022-07-23T01:19:02;101252.84;;;26.83;32.18
13478;BME280;12598;62.382;17.344;2022-07-23T01:20:06;101256.59;;;26.82;32.52
13478;BME280;12598;62.382;17.344;2022-07-23T01:21:11;101258.28;;;26.83;32.25
13478;BME280;12598;62.382;17.344;2022-07-23T01:22:18;101253.03;;;26.82;32.48
13478;BME280;12598;62.382;17.344;2022-07-23T01:23:20;101248.00;;;26.79;32.28
13478;BME280;12598;62.382;17.344;2022-07-23T01:24:27;101249.03;;;26.78;32.29
13478;BME280;12598;62.382;17.344;2022-07-23T01:25:47;101235.38;;;26.71;32.75
13478;BME280;12598;62.382;17.344;2022-07-23T01:26:50;101261.63;;;26.85;32.30
13478;BME280;12598;62.382;17.344;2022-07-23T01:27:53;101261.81;;;26.84;32.31
13478;BME280;12598;62.382;17.344;2022-07-23T01:28:55;101260.69;;;26.78;32.48
13478;BME280;12598;62.382;17.344;2022-07-23T01:30:00;101257.16;;;26.78;32.37
13478;BME280;12598;62.382;17.344;2022-07-23T01:31:02;101259.50;;;26.81;32.26
13478;BME280;12598;62.382;17.344;2022-07-23T01:32:08;101248.28;;;26.69;32.29
13478;BME280;12598;62.382;17.344;2022-07-23T01:33:10;101255.03;;;26.73;32.33
13478;BME280;12598;62.382;17.344;2022-07-23T01:34:13;101248.94;;;26.71;32.35
13478;BME280;12598;62.382;17.344;2022-07-23T01:35:15;101264.44;;;26.77;32.42
13478;BME280;12598;62.382;17.344;2022-07-23T01:36:18;101252.31;;;26.73;32.50
13478;BME280;12598;62.382;17.344;2022-07-23T01:37:20;101256.06;;;26.72;32.66
13478;BME280;12598;62.382;17.344;2022-07-23T01:38:23;101257.34;;;26.76;32.38
13478;BME280;12598;62.382;17.344;2022-07-23T01:39:25;101251.00;;;26.69;32.70
13478;BME280;12598;62.382;17.344;2022-07-23T01:40:27;101256.44;;;26.69;32.52
13478;BME280;12598;62.382;17.344;2022-07-23T01:41:31;101254.84;;;26.75;32.27
13478;BME280;12598;62.382;17.344;2022-07-23T01:42:33;101242.44;;;26.66;32.71
13478;BME280;12598;62.382;17.344;2022-07-23T01:43:37;101254.84;;;26.75;32.33
13478;BME280;12598;62.382;17.344;2022-07-23T01:44:39;101257.72;;;26.73;32.61
13478;BME280;12598;62.382;17.344;2022-07-23T01:45:44;101247.25;;;26.70;32.32
13478;BME280;12598;62.382;17.344;2022-07-23T01:46:47;101237.19;;;26.64;32.58
13478;BME280;12598;62.382;17.344;2022-07-23T01:47:51;101250.63;;;26.72;32.76
13478;BME280;12598;62.382;17.344;2022-07-23T01:48:53;101253.53;;;26.71;32.43
13478;BME280;12598;62.382;17.344;2022-07-23T01:50:11;101245.47;;;26.77;32.49
13478;BME280;12598;62.382;17.344;2022-07-23T01:51:19;101250.06;;;26.77;32.44
13478;BME280;12598;62.382;17.344;2022-07-23T01:52:31;101250.88;;;26.77;32.50
13478;BME280;12598;62.382;17.344;2022-07-23T01:53:33;101231.38;;;26.67;32.13
13478;BME280;12598;62.382;17.344;2022-07-23T01:54:35;101226.53;;;26.63;32.52
13478;BME280;12598;62.382;17.344;2022-07-23T01:55:40;101239.13;;;26.70;32.22
13478;BME280;12598;62.382;17.344;2022-07-23T01:56:43;101228.41;;;26.62;32.40
13478;BME280;12598;62.382;17.344;2022-07-23T01:57:46;101242.88;;;26.69;32.70
13478;BME280;12598;62.382;17.344;2022-07-23T01:58:48;101238.47;;;26.68;32.51
13478;BME280;12598;62.382;17.344;2022-07-23T01:59:51;101227.09;;;26.58;32.51
13478;BME280;12598;62.382;17.344;2022-07-23T02:00:55;101237.66;;;26.68;32.42
13478;BME280;12598;62.382;17.344;2022-07-23T02:01:57;101217.94;;;26.59;32.54
13478;BME280;12598;62.382;17.344;2022-07-23T02:02:59;101214.56;;;26.57;32.64
13478;BME280;12598;62.382;17.344;2022-07-23T02:04:02;101235.13;;;26.66;32.42
13478;BME280;12598;62.382;17.344;2022-07-23T02:05:05;101229.69;;;26.66;32.54
13478;BME280;12598;62.382;17.344;2022-07-23T02:06:07;101231.75;;;26.64;32.79
13478;BME280;12598;62.382;17.344;2022-07-23T02:07:09;101236.16;;;26.65;32.79
13478;BME280;12598;62.382;17.344;2022-07-23T02:08:11;101209.72;;;26.53;32.70
13478;BME280;12598;62.382;17.344;2022-07-23T02:09:13;101223.81;;;26.63;32.57
13478;BME280;12598;62.382;17.344;2022-07-23T02:10:15;101196.63;;;26.42;32.42
13478;BME280;12598;62.382;17.344;2022-07-23T02:11:17;101234.47;;;26.64;32.89
13478;BME280;12598;62.382;17.344;2022-07-23T02:12:19;101227.75;;;26.60;32.37
13478;BME280;12598;62.382;17.344;2022-07-23T02:13:21;101222.16;;;26.62;32.51
13478;BME280;12598;62.382;17.344;2022-07-23T02:14:25;101231.97;;;26.63;32.65
13478;BME280;12598;62.382;17.344;2022-07-23T02:15:27;101231.97;;;26.63;32.68
13478;BME280;12598;62.382;17.344;2022-07-23T02:16:30;101218.69;;;26.53;32.48
13478;BME280;12598;62.382;17.344;2022-07-23T02:17:36;101198.94;;;26.45;32.42
13478;BME280;12598;62.382;17.344;2022-07-23T02:18:38;101229.16;;;26.56;32.77
13478;BME280;12598;62.382;17.344;2022-07-23T02:19:40;101213.28;;;26.53;32.60
13478;BME280;12598;62.382;17.344;2022-07-23T02:20:42;101226.25;;;26.58;32.79
13478;BME280;12598;62.382;17.344;2022-07-23T02:21:46;101217.84;;;26.53;32.35
13478;BME280;12598;62.382;17.344;2022-07-23T02:22:49;101229.63;;;26.60;32.39
13478;BME280;12598;62.382;17.344;2022-07-23T02:23:50;101217.03;;;26.52;32.54
13478;BME280;12598;62.382;17.344;2022-07-23T02:24:53;101235.88;;;26.60;32.52
13478;BME280;12598;62.382;17.344;2022-07-23T02:25:54;101233.19;;;26.60;32.31
13478;BME280;12598;62.382;17.344;2022-07-23T02:26:56;101210.19;;;26.42;32.61
13478;BME280;12598;62.382;17.344;2022-07-23T02:27:58;101228.78;;;26.59;32.19
13478;BME280;12598;62.382;17.344;2022-07-23T02:29:04;101223.75;;;26.56;32.61
13478;BME280;12598;62.382;17.344;2022-07-23T02:30:07;101218.69;;;26.53;32.05
13478;BME280;12598;62.382;17.344;2022-07-23T02:31:09;101218.22;;;26.50;32.37
13478;BME280;12598;62.382;17.344;2022-07-23T02:32:11;101216.63;;;26.55;32.22
13478;BME280;12598;62.382;17.344;2022-07-23T02:33:12;101205.69;;;26.49;32.62
13478;BME280;12598;62.382;17.344;2022-07-23T02:34:15;101225.41;;;26.57;32.34
13478;BME280;12598;62.382;17.344;2022-07-23T02:35:17;101221.03;;;26.56;32.60
13478;BME280;12598;62.382;17.344;2022-07-23T02:36:19;101198.94;;;26.45;32.67
13478;BME280;12598;62.382;17.344;2022-07-23T02:37:24;101211.59;;;26.52;32.37
13478;BME280;12598;62.382;17.344;2022-07-23T02:38:26;101204.88;;;26.48;32.34
13478;BME280;12598;62.382;17.344;2022-07-23T02:39:27;101218.31;;;26.56;32.47
13478;BME280;12598;62.382;17.344;2022-07-23T02:40:30;101200.84;;;26.44;32.21
13478;BME280;12598;62.382;17.344;2022-07-23T02:41:32;101216.81;;;26.54;32.41
13478;BME280;12598;62.382;17.344;2022-07-23T02:42:34;101204.22;;;26.46;32.42
13478;BME280;12598;62.382;17.344;2022-07-23T02:43:35;101216.00;;;26.53;32.56
13478;BME280;12598;62.382;17.344;2022-07-23T02:44:37;101213.66;;;26.50;32.50
13478;BME280;12598;62.382;17.344;2022-07-23T02:45:39;101212.41;;;26.53;32.54
13478;BME280;12598;62.382;17.344;2022-07-23T02:46:43;101213.28;;;26.53;32.46
13478;BME280;12598;62.382;17.344;2022-07-23T02:47:44;101217.84;;;26.53;32.30
13478;BME280;12598;62.382;17.344;2022-07-23T02:48:46;101204.03;;;26.48;32.84
13478;BME280;12598;62.382;17.344;2022-07-23T02:49:49;101185.03;;;26.33;32.44
13478;BME280;12598;62.382;17.344;2022-07-23T02:50:51;101198.50;;;26.41;32.51
13478;BME280;12598;62.382;17.344;2022-07-23T02:52:00;101214.31;;;26.52;32.35
13478;BME280;12598;62.382;17.344;2022-07-23T02:53:02;101211.59;;;26.52;32.28
13478;BME280;12598;62.382;17.344;2022-07-23T02:54:04;101203.19;;;26.47;32.43
13478;BME280;12598;62.382;17.344;2022-07-23T02:55:06;101207.59;;;26.48;32.55
13478;BME280;12598;62.382;17.344;2022-07-23T02:56:09;101220.75;;;26.51;32.75
13478;BME280;12598;62.382;17.344;2022-07-23T02:57:11;101205.53;;;26.50;32.44
13478;BME280;12598;62.382;17.344;2022-07-23T02:58:13;101216.38;;;26.50;32.61
13478;BME280;12598;62.382;17.344;2022-07-23T02:59:14;101215.72;;;26.48;32.84
13478;BME280;12598;62.382;17.344;2022-07-23T03:00:17;101203.06;;;26.41;32.49
13478;BME280;12598;62.382;17.344;2022-07-23T03:01:19;101211.34;;;26.47;32.45
13478;BME280;12598;62.382;17.344;2022-07-23T03:02:21;101208.13;;;26.44;32.33
13478;BME280;12598;62.382;17.344;2022-07-23T03:03:24;101208.75;;;26.46;32.64
13478;BME280;12598;62.382;17.344;2022-07-23T03:04:30;101201.22;;;26.41;32.52
13478;BME280;12598;62.382;17.344;2022-07-23T03:05:32;101215.06;;;26.46;32.36
13478;BME280;12598;62.382;17.344;2022-07-23T03:06:34;101206.81;;;26.40;32.69
13478;BME280;12598;62.382;17.344;2022-07-23T03:07:37;101228.63;;;26.46;32.67
13478;BME280;12598;62.382;17.344;2022-07-23T03:08:39;101210.56;;;26.39;32.70
13478;BME280;12598;62.382;17.344;2022-07-23T03:09:41;101215.06;;;26.46;32.54
13478;BME280;12598;62.382;17.344;2022-07-23T03:10:43;101217.09;;;26.44;32.57
13478;BME280;12598;62.382;17.344;2022-07-23T03:11:45;101220.66;;;26.45;32.78
13478;BME280;12598;62.382;17.344;2022-07-23T03:12:47;101200.09;;;26.36;32.59
13478;BME280;12598;62.382;17.344;2022-07-23T03:13:49;101204.66;;;26.35;32.68
13478;BME280;12598;62.382;17.344;2022-07-23T03:14:50;101213.94;;;26.41;32.58
13478;BME280;12598;62.382;17.344;2022-07-23T03:15:52;101195.88;;;26.33;32.80
13478;BME280;12598;62.382;17.344;2022-07-23T03:16:55;101213.47;;;26.37;32.82
13478;BME280;12598;62.382;17.344;2022-07-23T03:17:58;101211.03;;;26.42;32.67
13478;BME280;12598;62.382;17.344;2022-07-23T03:19:00;101204.66;;;26.35;32.65
13478;BME280;12598;62.382;17.344;2022-07-23T03:20:07;101209.91;;;26.37;32.75
13478;BME280;12598;62.382;17.344;2022-07-23T03:21:09;101215.44;;;26.43;33.10
13478;BME280;12598;62.382;17.344;2022-07-23T03:22:11;101196.91;;;26.32;33.06
13478;BME280;12598;62.382;17.344;2022-07-23T03:23:13;101221.88;;;26.42;32.67
13478;BME280;12598;62.382;17.344;2022-07-23T03:24:15;101220.94;;;26.35;32.90
13478;BME280;12598;62.382;17.344;2022-07-23T03:25:19;101221.03;;;26.42;33.01
13478;BME280;12598;62.382;17.344;2022-07-23T03:26:21;101214.78;;;26.41;32.85
13478;BME280;12598;62.382;17.344;2022-07-23T03:27:28;101200.88;;;26.30;32.56
13478;BME280;12598;62.382;17.344;2022-07-23T03:28:31;101211.59;;;26.38;32.66
13478;BME280;12598;62.382;17.344;2022-07-23T03:29:33;101219.34;;;26.41;32.45
13478;BME280;12598;62.382;17.344;2022-07-23T03:30:35;101206.72;;;26.33;32.73
13478;BME280;12598;62.382;17.344;2022-07-23T03:31:37;101216.84;;;26.39;32.71
13478;BME280;12598;62.382;17.344;2022-07-23T03:32:39;101224.97;;;26.39;32.73
13478;BME280;12598;62.382;17.344;2022-07-23T03:33:41;101223.47;;;26.37;32.66
13478;BME280;12598;62.382;17.344;2022-07-23T03:34:43;101222.28;;;26.39;32.74
13478;BME280;12598;62.382;17.344;2022-07-23T03:35:47;101205.38;;;26.23;32.60
13478;BME280;12598;62.382;17.344;2022-07-23T03:36:57;101204.22;;;26.32;32.64
13478;BME280;12598;62.382;17.344;2022-07-23T03:37:59;101221.78;;;26.36;32.69
13478;BME280;12598;62.382;17.344;2022-07-23T03:39:01;101217.66;;;26.40;32.73
13478;BME280;12598;62.382;17.344;2022-07-23T03:40:05;101216.00;;;26.39;32.74
13478;BME280;12598;62.382;17.344;2022-07-23T03:41:07;101198.72;;;26.25;32.35
13478;BME280;12598;62.382;17.344;2022-07-23T03:42:09;101226.00;;;26.38;32.71
13478;BME280;12598;62.382;17.344;2022-07-23T03:43:11;101224.34;;;26.37;32.36
13478;BME280;12598;62.382;17.344;2022-07-23T03:44:13;101195.34;;;26.23;32.54
13478;BME280;12598;62.382;17.344;2022-07-23T03:45:16;101206.28;;;26.30;32.52
13478;BME280;12598;62.382;17.344;2022-07-23T03:46:18;101223.47;;;26.37;32.69
13478;BME280;12598;62.382;17.344;2022-07-23T03:47:21;101211.50;;;26.31;32.66
13478;BME280;12598;62.382;17.344;2022-07-23T03:48:23;101213.41;;;26.31;32.63
13478;BME280;12598;62.382;17.344;2022-07-23T03:49:25;101206.28;;;26.30;32.60
13478;BME280;12598;62.382;17.344;2022-07-23T03:50:27;101200.41;;;26.26;32.33
13478;BME280;12598;62.382;17.344;2022-07-23T03:51:30;101212.81;;;26.35;32.22
13478;BME280;12598;62.382;17.344;2022-07-23T03:52:32;101203.38;;;26.31;32.45
13478;BME280;12598;62.382;17.344;2022-07-23T03:53:34;101215.53;;;26.35;32.76
13478;BME280;12598;62.382;17.344;2022-07-23T03:54:36;101212.16;;;26.33;32.62
13478;BME280;12598;62.382;17.344;2022-07-23T03:55:37;101207.59;;;26.34;32.33
13478;BME280;12598;62.382;17.344;2022-07-23T03:56:39;101211.13;;;26.34;32.44
13478;BME280;12598;62.382;17.344;2022-07-23T03:57:42;101208.41;;;26.34;32.36
13478;BME280;12598;62.382;17.344;2022-07-23T03:58:44;101207.13;;;26.30;32.63
13478;BME280;12598;62.382;17.344;2022-07-23T03:59:46;101191.22;;;26.27;32.61
13478;BME280;12598;62.382;17.344;2022-07-23T04:00:48;101203.00;;;26.34;32.40
13478;BME280;12598;62.382;17.344;2022-07-23T04:01:50;101213.84;;;26.34;32.38
13478;BME280;12598;62.382;17.344;2022-07-23T04:02:52;101205.06;;;26.32;32.70
13478;BME280;12598;62.382;17.344;2022-07-23T04:03:54;101185.91;;;26.19;32.52
13478;BME280;12598;62.382;17.344;2022-07-23T04:04:57;101204.03;;;26.33;32.18
13478;BME280;12598;62.382;17.344;2022-07-23T04:05:59;101190.59;;;26.25;32.65
13478;BME280;12598;62.382;17.344;2022-07-23T04:07:03;101192.91;;;26.28;32.51
13478;BME280;12598;62.382;17.344;2022-07-23T04:08:06;101187.88;;;26.25;32.40
13478;BME280;12598;62.382;17.344;2022-07-23T04:09:12;101190.84;;;26.30;32.31
13478;BME280;12598;62.382;17.344;2022-07-23T04:10:15;101189.56;;;26.26;32.54
13478;BME280;12598;62.382;17.344;2022-07-23T04:11:17;101193.38;;;26.32;32.58
13478;BME280;12598;62.382;17.344;2022-07-23T04:12:19;101202.16;;;26.34;32.57
13478;BME280;12598;62.382;17.344;2022-07-23T04:13:21;101200.47;;;26.33;32.46
13478;BME280;12598;62.382;17.344;2022-07-23T04:14:23;101187.44;;;26.22;32.10
13478;BME280;12598;62.382;17.344;2022-07-23T04:15:24;101192.53;;;26.31;32.32
13478;BME280;12598;62.382;17.344;2022-07-23T04:16:26;101199.63;;;26.32;32.56
13478;BME280;12598;62.382;17.344;2022-07-23T04:17:30;101180.31;;;26.21;32.51
13478;BME280;12598;62.382;17.344;2022-07-23T04:18:32;101192.47;;;26.25;32.60
13478;BME280;12598;62.382;17.344;2022-07-23T04:19:49;101172.84;;;26.23;32.53
13478;BME280;12598;62.382;17.344;2022-07-23T04:20:55;101206.34;;;26.36;32.36
13478;BME280;12598;62.382;17.344;2022-07-23T04:21:57;101188.34;;;26.29;32.32
13478;BME280;12598;62.382;17.344;2022-07-23T04:22:59;101192.53;;;26.31;32.52
13478;BME280;12598;62.382;17.344;2022-07-23T04:24:02;101178.81;;;26.18;32.28
13478;BME280;12598;62.382;17.344;2022-07-23T04:25:04;101182.19;;;26.20;32.32
13478;BME280;12598;62.382;17.344;2022-07-23T04:26:07;101203.38;;;26.31;32.45
13478;BME280;12598;62.382;17.344;2022-07-23T04:27:09;101200.00;;;26.29;32.39
13478;BME280;12598;62.382;17.344;2022-07-23T04:28:11;101202.56;;;26.31;32.81
13478;BME280;12598;62.382;17.344;2022-07-23T04:29:13;101203.59;;;26.30;32.48
13478;BME280;12598;62.382;17.344;2022-07-23T04:30:15;101189.09;;;26.23;32.36
13478;BME280;12598;62.382;17.344;2022-07-23T04:31:17;101183.69;;;26.23;32.52
13478;BME280;12598;62.382;17.344;2022-07-23T04:32:19;101192.75;;;26.30;32.68
13478;BME280;12598;62.382;17.344;2022-07-23T04:33:21;101202.56;;;26.31;32.64
13478;BME280;12598;62.382;17.344;2022-07-23T04:34:25;101191.22;;;26.27;32.23
13478;BME280;12598;62.382;17.344;2022-07-23T04:35:29;101182.44;;;26.25;32.57
13478;BME280;12598;62.382;17.344;2022-07-23T04:36:40;101198.59;;;26.33;32.43
13478;BME280;12598;62.382;17.344;2022-07-23T04:37:42;101184.78;;;26.28;32.79
13478;BME280;12598;62.382;17.344;2022-07-23T04:38:44;101195.88;;;26.33;33.02
13478;BME280;12598;62.382;17.344;2022-07-23T04:39:51;101186.47;;;26.29;32.71
13478;BME280;12598;62.382;17.344;2022-07-23T04:40:53;101195.88;;;26.33;32.54
13478;BME280;12598;62.382;17.344;2022-07-23T04:41:55;101189.16;;;26.29;32.59
13478;BME280;12598;62.382;17.344;2022-07-23T04:42:57;101195.88;;;26.33;32.60
13478;BME280;12598;62.382;17.344;2022-07-23T04:44:00;101183.09;;;26.27;32.73
13478;BME280;12598;62.382;17.344;2022-07-23T04:45:03;101200.47;;;26.33;32.40
13478;BME280;12598;62.382;17.344;2022-07-23T04:46:05;101195.06;;;26.33;32.40
13478;BME280;12598;62.382;17.344;2022-07-23T04:47:16;101195.50;;;26.36;32.48
13478;BME280;12598;62.382;17.344;2022-07-23T04:48:19;101195.25;;;26.31;32.45
13478;BME280;12598;62.382;17.344;2022-07-23T04:49:27;101187.38;;;26.36;32.50
13478;BME280;12598;62.382;17.344;2022-07-23T04:50:29;101179.56;;;26.27;32.38
13478;BME280;12598;62.382;17.344;2022-07-23T04:51:32;101180.00;;;26.30;32.78
13478;BME280;12598;62.382;17.344;2022-07-23T04:52:34;101166.56;;;26.22;32.66
13478;BME280;12598;62.382;17.344;2022-07-23T04:53:37;101191.31;;;26.34;32.33
13478;BME280;12598;62.382;17.344;2022-07-23T04:54:40;101179.19;;;26.30;32.43
13478;BME280;12598;62.382;17.344;2022-07-23T04:55:42;101193.19;;;26.33;32.61
13478;BME280;12598;62.382;17.344;2022-07-23T04:56:43;101183.75;;;26.29;32.69
13478;BME280;12598;62.382;17.344;2022-07-23T04:57:45;101159.03;;;26.18;32.14
13478;BME280;12598;62.382;17.344;2022-07-23T04:58:47;101180.75;;;26.24;32.67
13478;BME280;12598;62.382;17.344;2022-07-23T04:59:51;101176.19;;;26.25;32.35
13478;BME280;12598;62.382;17.344;2022-07-23T05:00:54;101184.00;;;26.34;32.51
13478;BME280;12598;62.382;17.344;2022-07-23T05:01:59;101184.78;;;26.28;32.36
13478;BME280;12598;62.382;17.344;2022-07-23T05:03:01;101174.97;;;26.27;32.57
13478;BME280;12598;62.382;17.344;2022-07-23T05:04:04;101190.47;;;26.33;32.54
13478;BME280;12598;62.382;17.344;2022-07-23T05:05:09;101174.97;;;26.27;32.37
13478;BME280;12598;62.382;17.344;2022-07-23T05:06:11;101169.91;;;26.24;32.27
13478;BME280;12598;62.382;17.344;2022-07-23T05:07:13;101185.69;;;26.35;32.14
13478;BME280;12598;62.382;17.344;2022-07-23T05:08:16;101186.72;;;26.34;32.35
13478;BME280;12598;62.382;17.344;2022-07-23T05:09:23;101178.31;;;26.29;32.47
13478;BME280;12598;62.382;17.344;2022-07-23T05:10:25;101182.16;;;26.35;32.15
13478;BME280;12598;62.382;17.344;2022-07-23T05:11:28;101162.81;;;26.23;32.34
13478;BME280;12598;62.382;17.344;2022-07-23T05:12:30;101175.88;;;26.34;32.53
13478;BME280;12598;62.382;17.344;2022-07-23T05:13:32;101174.56;;;26.30;32.38
13478;BME280;12598;62.382;17.344;2022-07-23T05:14:33;101176.91;;;26.33;32.68
13478;BME280;12598;62.382;17.344;2022-07-23T05:15:35;101164.75;;;26.29;32.73
13478;BME280;12598;62.382;17.344;2022-07-23T05:16:38;101173.38;;;26.33;32.40
13478;BME280;12598;62.382;17.344;2022-07-23T05:17:45;101170.84;;;26.31;32.25
13478;BME280;12598;62.382;17.344;2022-07-23T05:18:50;101175.88;;;26.34;32.42
13478;BME280;12598;62.382;17.344;2022-07-23T05:19:52;101176.25;;;26.31;32.47
13478;BME280;12598;62.382;17.344;2022-07-23T05:21:01;101174.41;;;26.32;32.45
13478;BME280;12598;62.382;17.344;2022-07-23T05:22:03;101177.56;;;26.35;32.30
13478;BME280;12598;62.382;17.344;2022-07-23T05:23:05;101166.38;;;26.24;32.36
13478;BME280;12598;62.382;17.344;2022-07-23T05:24:08;101171.22;;;26.28;32.43
13478;BME280;12598;62.382;17.344;2022-07-23T05:25:10;101175.22;;;26.32;32.35
13478;BME280;12598;62.382;17.344;2022-07-23T05:26:12;101175.22;;;26.32;32.48